createdAt,value
2019-01-10T00:02:54.955Z,4.50
2019-01-10T00:08:01.174Z,9.40
2019-01-10T00:13:07.210Z,12.90
2019-01-10T00:18:13.295Z,65.70
2019-01-10T00:23:19.250Z,4.30
2019-01-10T00:28:25.233Z,3.87
2019-01-10T00:33:31.317Z,4.03
2019-01-10T00:38:37.177Z,3.00
2019-01-10T00:43:43.392Z,3.97
2019-01-10T00:48:49.670Z,8.40
2019-01-10T00:53:55.820Z,7.90
2019-01-10T00:59:01.975Z,6.43
2019-01-10T01:04:08.109Z,11.67
2019-01-10T01:09:14.044Z,9.60
2019-01-10T01:14:19.995Z,3.60
2019-01-10T01:19:25.879Z,4.63
2019-01-10T01:24:32.058Z,4.30
2019-01-10T01:29:38.433Z,3.57
2019-01-10T01:34:44.656Z,3.90
2019-01-10T01:39:50.697Z,3.83
2019-01-10T01:44:56.655Z,4.43
2019-01-10T01:50:03.024Z,3.40
2019-01-10T01:55:09.811Z,21.47
2019-01-10T02:00:21.683Z,3.87
2019-01-10T02:05:27.623Z,4.03
2019-01-10T02:10:33.680Z,4.00
2019-01-10T02:15:39.902Z,6.30
2019-01-10T02:20:46.813Z,7.67
2019-01-10T02:25:52.848Z,3.73
2019-01-10T02:30:58.781Z,8.07
2019-01-10T02:36:04.779Z,4.40
2019-01-10T02:41:10.949Z,4.60
2019-01-10T02:46:17.148Z,4.20
2019-01-10T02:51:23.432Z,3.70
2019-01-10T02:56:29.595Z,4.10
2019-01-10T03:01:35.551Z,4.43
2019-01-10T03:06:41.662Z,6.50
2019-01-10T03:11:48.003Z,4.13
2019-01-10T03:16:54.101Z,115.60
2019-01-10T03:22:00.059Z,12.73
2019-01-10T03:27:05.967Z,98.23
2019-01-10T03:32:12.149Z,3.87
2019-01-10T03:37:18.311Z,3.97
2019-01-10T03:42:24.342Z,11.03
2019-01-10T03:47:30.161Z,33.33
2019-01-10T03:52:36.385Z,42.93
2019-01-10T03:57:42.721Z,38.23
2019-01-10T04:02:49.026Z,12.97
2019-01-10T04:07:55.198Z,85.37
2019-01-10T04:13:01.772Z,6.20
2019-01-10T04:18:07.920Z,6.93
2019-01-10T04:23:13.871Z,5.03
2019-01-10T04:28:19.793Z,83.47
2019-01-10T04:33:26.062Z,3.23
2019-01-10T04:38:32.130Z,94.83
2019-01-10T04:43:37.941Z,7.83
2019-01-10T04:48:44.049Z,8.03
2019-01-10T04:53:50.035Z,21.53
2019-01-10T04:58:56.044Z,14.93
2019-01-10T05:04:01.808Z,7.83
2019-01-10T05:09:09.080Z,52.00
2019-01-10T05:14:16.717Z,8.57
2019-01-10T05:19:23.126Z,5.37
2019-01-10T05:24:29.225Z,6.10
2019-01-10T05:29:35.070Z,6.10
2019-01-10T05:34:41.022Z,6.83
2019-01-10T05:39:47.938Z,13.03
2019-01-10T05:44:53.882Z,5.63
2019-01-10T05:49:59.999Z,8.50
2019-01-10T05:55:07.562Z,13.03
2019-01-10T06:00:17.448Z,14.87
2019-01-10T06:05:23.768Z,17.27
2019-01-10T06:10:30.306Z,26.23
2019-01-10T06:15:36.394Z,18.43
2019-01-10T06:20:42.456Z,5.53
2019-01-10T06:25:48.587Z,16.10
2019-01-10T06:30:54.917Z,8.63
2019-01-10T06:36:00.982Z,20.13
2019-01-10T06:41:07.172Z,24.93
2019-01-10T06:46:13.031Z,25.57
2019-01-10T06:51:19.050Z,25.83
2019-01-10T06:56:25.049Z,28.93
2019-01-10T07:01:31.087Z,12.43
2019-01-10T07:06:37.834Z,56.87
2019-01-10T07:11:44.150Z,14.27
2019-01-10T07:16:53.783Z,65.07
2019-01-10T07:21:57.983Z,30.47
2019-01-10T07:27:04.002Z,12.50
2019-01-10T07:32:09.897Z,24.47
2019-01-10T07:37:15.830Z,26.47
2019-01-10T07:42:22.103Z,18.20
2019-01-10T07:47:47.327Z,28.63
2019-01-10T07:52:53.423Z,11.47
2019-01-10T07:57:59.658Z,25.90
2019-01-10T08:33:36.389Z,943.30
2019-01-10T08:38:42.370Z,579.27
2019-01-10T08:43:48.136Z,471.63
2019-01-10T08:48:54.415Z,670.30
2019-01-10T08:54:00.627Z,139.20
2019-01-10T08:59:06.865Z,248.13
2019-01-10T09:04:13.173Z,117.90
2019-01-10T09:09:19.231Z,149.30
2019-01-10T09:14:25.546Z,73.27
2019-01-10T09:19:31.475Z,139.43
2019-01-10T09:24:37.568Z,106.67
2019-01-10T09:29:43.736Z,51.87
2019-01-10T09:34:49.694Z,78.43
2019-01-10T09:39:55.874Z,114.90
2019-01-10T09:45:01.837Z,70.60
2019-01-10T09:50:10.226Z,70.03
2019-01-10T09:55:16.354Z,81.57
2019-01-10T10:00:29.984Z,149.60
2019-01-10T10:05:35.974Z,191.23
2019-01-10T10:10:41.856Z,129.53
2019-01-10T10:15:52.710Z,203.10
2019-01-10T10:20:55.622Z,134.73
2019-01-10T10:26:01.820Z,110.80
2019-01-10T10:31:07.897Z,82.63
2019-01-10T10:36:14.011Z,112.33
2019-01-10T10:41:20.153Z,65.57
2019-01-10T10:46:26.255Z,73.00
2019-01-10T10:51:32.098Z,179.93
2019-01-10T10:56:38.304Z,74.70
2019-01-10T11:01:44.546Z,80.50
2019-01-10T11:06:50.622Z,136.90
2019-01-10T11:11:56.623Z,120.43
2019-01-10T11:17:02.623Z,95.07
2019-01-10T11:22:08.665Z,109.50
2019-01-10T11:27:14.705Z,35.07
2019-01-10T11:32:20.952Z,26.37
2019-01-10T11:37:27.148Z,56.70
2019-01-10T11:42:33.091Z,30.40
2019-01-10T11:47:39.097Z,33.87
2019-01-10T11:52:45.742Z,122.67
2019-01-10T11:57:51.649Z,71.77
2019-01-10T12:02:57.892Z,47.73
2019-01-10T12:08:04.208Z,49.90
2019-01-10T12:13:10.435Z,505.63
2019-01-10T12:18:17.880Z,304.67
2019-01-10T12:23:41.918Z,178.67
2019-01-10T12:28:48.272Z,138.37
2019-01-10T12:33:54.544Z,98.27
2019-01-10T12:39:00.728Z,416.67
2019-01-10T12:44:23.885Z,275.27
2019-01-10T12:49:47.785Z,186.73
2019-01-10T12:54:54.276Z,75.15
2019-01-10T13:00:00.557Z,201.73
2019-01-10T13:05:07.150Z,140.83
2019-01-10T13:10:16.270Z,21.33
2019-01-10T13:15:27.164Z,125.93
2019-01-10T13:20:33.167Z,231.63
2019-01-10T13:25:39.126Z,272.07
2019-01-10T13:30:45.101Z,644.03
2019-01-10T13:35:51.083Z,606.60
2019-01-10T13:40:57.137Z,471.13
2019-01-10T13:46:03.334Z,290.93
2019-01-10T13:51:09.304Z,692.03
2019-01-10T13:56:15.358Z,974.83
2019-01-10T14:01:21.226Z,164.77
2019-01-10T14:06:27.310Z,131.90
2019-01-10T14:11:33.666Z,156.80
2019-01-10T14:16:39.901Z,213.90
2019-01-10T14:21:46.821Z,332.87
2019-01-10T14:26:52.929Z,191.27
2019-01-10T14:31:58.912Z,278.03
2019-01-10T14:37:04.882Z,264.93
2019-01-10T14:42:10.954Z,430.13
2019-01-10T14:47:17.455Z,508.43
2019-01-10T14:52:23.630Z,490.13
2019-01-10T14:57:29.949Z,540.27
2019-01-10T15:02:36.518Z,572.33
2019-01-10T15:07:42.595Z,366.70
2019-01-10T15:12:48.979Z,622.73
2019-01-10T15:17:54.844Z,99.10
2019-01-10T15:23:00.930Z,16.03
2019-01-10T15:28:06.983Z,19.90
2019-01-10T15:33:13.044Z,282.67
2019-01-10T15:38:19.021Z,641.37
2019-01-10T15:43:25.097Z,262.80
2019-01-10T15:48:31.183Z,593.60
2019-01-10T15:53:37.699Z,447.60
2019-01-10T15:58:43.979Z,378.77
2019-01-10T16:03:50.118Z,340.07
2019-01-10T16:08:56.016Z,295.67
2019-01-10T16:14:02.428Z,315.53
2019-01-10T16:19:08.586Z,248.03
2019-01-10T16:24:14.514Z,384.93
2019-01-10T16:29:20.809Z,469.80
2019-01-10T16:34:26.776Z,469.40
2019-01-10T16:39:32.732Z,456.90
2019-01-10T16:44:38.732Z,436.57
2019-01-10T16:49:44.728Z,602.67
2019-01-10T16:54:50.916Z,451.93
2019-01-10T16:59:56.968Z,491.53
2019-01-10T17:05:03.367Z,470.07
2019-01-10T17:10:10.537Z,277.97
2019-01-10T17:15:16.950Z,142.37
2019-01-10T17:20:23.954Z,328.90
2019-01-10T17:25:30.199Z,208.70
2019-01-10T17:30:36.262Z,162.17
2019-01-10T17:35:42.186Z,376.63
2019-01-10T17:40:48.330Z,412.70
2019-01-10T17:45:54.890Z,694.70
2019-01-10T17:51:01.244Z,170.43
2019-01-10T17:56:07.498Z,134.53
2019-01-10T18:01:13.921Z,4.93
2019-01-10T18:06:19.956Z,14.77
2019-01-10T18:11:26.077Z,47.87
2019-01-10T18:16:32.540Z,184.97
2019-01-10T18:21:38.653Z,384.40
2019-01-10T18:26:45.070Z,467.57
2019-01-10T18:31:51.457Z,182.53
2019-01-10T18:36:57.486Z,179.50
2019-01-10T18:42:03.463Z,369.13
2019-01-10T18:47:09.645Z,253.57
2019-01-10T18:52:15.921Z,223.83
2019-01-10T18:57:21.999Z,298.27
2019-01-10T19:02:27.972Z,466.70
2019-01-10T19:07:33.952Z,214.13
2019-01-10T19:12:40.211Z,615.07
2019-01-10T19:17:46.414Z,397.03
2019-01-10T19:22:52.375Z,130.97
2019-01-10T19:27:59.001Z,281.40
2019-01-10T19:33:05.746Z,284.77
2019-01-10T19:38:11.646Z,342.23
2019-01-10T19:43:17.490Z,327.27
2019-01-10T19:48:23.668Z,300.90
2019-01-10T19:53:29.739Z,361.23
2019-01-10T19:58:35.709Z,291.17
2019-01-10T20:03:42.227Z,852.80
2019-01-10T20:08:48.389Z,545.17
2019-01-10T20:13:54.301Z,470.33
2019-01-10T20:19:00.276Z,376.07
2019-01-10T20:24:06.445Z,142.07
2019-01-10T20:29:12.424Z,281.27
2019-01-10T20:34:18.407Z,381.80
2019-01-10T20:39:24.375Z,495.97
2019-01-10T20:44:30.555Z,711.63
2019-01-10T20:49:36.624Z,574.65
2019-01-10T20:54:42.615Z,999.90
2019-01-10T20:59:48.598Z,276.32
2019-01-10T21:04:54.546Z,448.93
2019-01-10T21:10:00.715Z,193.23
2019-01-10T21:15:08.951Z,215.33
2019-01-10T21:20:15.572Z,133.33
2019-01-10T21:25:21.903Z,340.70
2019-01-10T21:30:27.989Z,185.80
2019-01-10T21:35:34.327Z,773.63
2019-01-10T21:40:40.698Z,509.03
2019-01-10T21:45:47.041Z,341.93
2019-01-10T21:50:52.917Z,720.70
2019-01-10T21:55:59.125Z,229.50
2019-01-10T22:01:05.358Z,288.37
2019-01-10T22:06:11.459Z,324.17
2019-01-10T22:11:17.554Z,352.03
2019-01-10T22:16:23.535Z,189.27
2019-01-10T22:21:30.272Z,231.23
2019-01-10T22:26:36.305Z,95.63
2019-01-10T22:31:42.219Z,78.90
2019-01-10T22:36:48.193Z,366.07
2019-01-10T22:41:54.600Z,420.80
2019-01-10T22:47:00.475Z,78.90
2019-01-10T22:52:06.536Z,184.33
2019-01-10T22:57:12.545Z,228.33
2019-01-10T23:02:18.596Z,414.63
2019-01-10T23:07:26.633Z,176.13
2019-01-10T23:12:35.602Z,156.93
2019-01-10T23:17:52.273Z,150.60
2019-01-10T23:23:04.450Z,724.20
2019-01-10T23:28:11.432Z,13.20
2019-01-10T23:33:18.840Z,270.60
2019-01-10T23:38:25.720Z,358.23
2019-01-10T23:43:31.821Z,306.27
2019-01-10T23:48:38.104Z,293.90
2019-01-10T23:53:44.365Z,187.60
2019-01-10T23:58:50.396Z,352.00
